Wied, Texas
Current Conditions -  °F | °C
As of 10:15 AM on Thursday 30 Oct 2014 (Local Time) from K66R Reporting Station
Broken Clouds Broken Clouds  
Wind Chill: 19°   Ceiling: 4900
Heat Index: 19°   Visibility: 10mi
Dew Point: 13°   Wind: 5mph
Humidity: 69%   Direction: 80°E
Pressure: 30.14"   Gusts: NA
Location:  29.3984°N, 96.8256°W
Report Text: K66R 301515Z AUTO 08004KT 10SM SCT014 BKN049 19/13 A3014 RMK AO2 T01920133
Loading
Personal Weather Stations






























Interactive Weather Map
Tropical Storm Tracking
New forecast layout! Learn more

10-Day Weather Forecast

Advertisements
Track Severe Weather on mobile